Terminal Aerodrome Forecast
Issued by NWS

Home | Current Version | Previous Version | Text Only | Print | Product List | Glossary Off
Versions: 1 2 3 4 5 6 7 8 9 10 11 12 13 14 15 16

000
FTUS43 KTOP 261100
TAFMHK
TAF
KMHK 261121Z 2612/2712 28011KT P6SM SCT080
     FM261500 32014G27KT P6SM BKN040
     FM261800 33011G21KT P6SM SCT040
     FM270000 36004KT P6SM SKC=

USA.gov is the U.S. government's official web portal to all federal, state and local government web resources and services.